Time;durP1;ratioP1;P1;durP2;ratioP2;P2;SDS_P1;SDS_P2;PMS_P1;PMS_P2;Temp;Humidity;BMP_temperature;BMP_pressure;BME280_temperature;BME280_humidity;BME280_pressure;Samples;Min_cycle;Max_cycle;Signal;HPM_P1;HPM_P2
2021/12/23 00:01:10;;;;;;;37.30;20.08;;;2.70;56.30;;;;;;4996058;28;20021;-57
2021/12/23 00:03:37;;;;;;;37.55;20.40;;;2.70;56.30;;;;;;4996647;28;20037;-56
2021/12/23 00:06:03;;;;;;;37.75;20.60;;;2.70;56.30;;;;;;4998332;28;20475;-56
2021/12/23 00:08:30;;;;;;;38.55;20.90;;;2.70;56.40;;;;;;4993721;28;20041;-56
2021/12/23 00:10:56;;;;;;;39.30;20.30;;;2.70;56.30;;;;;;5000829;28;20030;-55
2021/12/23 00:13:23;;;;;;;38.72;21.77;;;2.70;56.30;;;;;;4999698;28;20030;-55
2021/12/23 00:16:02;;;;;;;37.63;20.38;;;2.70;56.30;;;;;;4999600;28;20451;-56
2021/12/23 00:23:47;;;;;;;43.90;21.40;;;2.70;56.30;;;;;;5005030;28;20041;-56
2021/12/23 00:26:14;;;;;;;40.40;20.80;;;2.70;56.30;;;;;;4999772;28;20359;-56
2021/12/23 00:28:40;;;;;;;36.40;20.92;;;2.70;56.30;;;;;;4998198;28;20030;-57
2021/12/23 00:31:06;;;;;;;40.67;21.67;;;2.70;56.30;;;;;;4999538;28;20382;-57
2021/12/23 00:33:35;;;;;;;37.45;20.95;;;2.70;56.30;;;;;;4999007;28;20458;-54
2021/12/23 00:36:04;;;;;;;38.88;20.35;;;2.70;56.30;;;;;;5000571;28;20018;-55
2021/12/23 00:38:36;;;;;;;42.10;21.90;;;2.70;56.30;;;;;;4997485;28;20038;-56
2021/12/23 00:41:04;;;;;;;40.53;21.65;;;2.70;56.30;;;;;;4997801;28;20044;-55
2021/12/23 00:43:31;;;;;;;40.45;20.92;;;2.70;56.30;;;;;;5000357;28;20030;-56
2021/12/23 00:45:58;;;;;;;40.38;21.33;;;2.70;56.30;;;;;;4998235;28;20052;-57
2021/12/23 00:48:24;;;;;;;37.85;20.23;;;2.70;56.30;;;;;;4996139;28;20041;-56
2021/12/23 00:50:51;;;;;;;41.03;21.38;;;2.70;56.40;;;;;;4998733;28;21006;-54
2021/12/23 00:53:20;;;;;;;34.35;20.80;;;2.70;56.30;;;;;;4998091;28;20041;-56
2021/12/23 00:55:50;;;;;;;38.10;20.27;;;2.70;56.30;;;;;;5004105;28;20479;-57
2021/12/23 00:58:16;;;;;;;39.03;21.27;;;2.70;56.30;;;;;;5003142;28;20045;-56
2021/12/23 01:00:44;;;;;;;41.70;21.00;;;2.70;56.30;;;;;;5001242;28;20057;-55
2021/12/23 01:03:10;;;;;;;42.33;21.63;;;2.70;56.40;;;;;;5001114;28;20038;-56
2021/12/23 01:05:37;;;;;;;36.80;21.05;;;2.70;56.40;;;;;;5001668;28;20050;-53
2021/12/23 01:08:04;;;;;;;43.85;21.10;;;2.70;56.40;;;;;;5002559;28;20958;-56
2021/12/23 01:10:31;;;;;;;39.47;22.23;;;2.70;56.30;;;;;;5002872;28;20018;-54
2021/12/23 01:13:01;;;;;;;39.35;21.77;;;2.70;56.30;;;;;;5003870;28;20382;-55
2021/12/23 01:18:08;;;;;;;41.55;21.35;;;2.70;56.40;;;;;;5001272;28;20026;-56
2021/12/23 01:20:36;;;;;;;42.67;21.67;;;2.70;56.30;;;;;;5003028;28;20045;-56
2021/12/23 01:23:08;;;;;;;41.08;21.88;;;2.70;56.30;;;;;;5004253;28;20037;-58
2021/12/23 01:25:38;;;;;;;39.28;21.55;;;2.70;56.30;;;;;;5004383;28;20022;-56
2021/12/23 01:28:06;;;;;;;42.67;21.60;;;2.70;56.30;;;;;;5000503;28;20022;-58
2021/12/23 01:30:37;;;;;;;40.13;21.90;;;2.70;56.20;;;;;;5003580;28;20233;-53
2021/12/23 01:33:05;;;;;;;40.13;22.05;;;2.70;56.20;;;;;;5002050;28;20025;-56
2021/12/23 01:35:31;;;;;;;36.25;20.63;;;2.70;56.20;;;;;;5002776;28;20030;-56
2021/12/23 01:37:59;;;;;;;40.63;21.77;;;2.60;56.20;;;;;;5002421;28;20030;-55
2021/12/23 01:40:25;;;;;;;43.85;22.30;;;2.60;56.20;;;;;;5001175;28;20037;-55
2021/12/23 01:42:52;;;;;;;39.08;21.55;;;2.60;56.20;;;;;;5004052;28;20041;-56
2021/12/23 01:45:22;;;;;;;41.97;22.08;;;2.60;56.20;;;;;;4998355;28;20528;-54
2021/12/23 01:47:49;;;;;;;39.55;21.30;;;2.60;56.20;;;;;;4999212;28;20030;-55
2021/12/23 01:50:19;;;;;;;39.83;21.02;;;2.60;56.80;;;;;;5004458;28;20478;-56
2021/12/23 01:52:46;;;;;;;39.95;21.13;;;2.60;56.30;;;;;;5004286;28;20578;-56
2021/12/23 01:55:12;;;;;;;38.53;21.35;;;2.50;56.30;;;;;;5002865;28;20041;-57
2021/12/23 01:57:40;;;;;;;38.33;20.83;;;2.50;56.30;;;;;;5000981;28;20370;-57
2021/12/23 02:00:10;;;;;;;41.83;22.42;;;2.50;56.30;;;;;;5001165;28;20033;-56
2021/12/23 02:02:37;;;;;;;43.90;22.40;;;2.50;56.40;;;;;;5001389;28;20037;-55
2021/12/23 02:05:04;;;;;;;38.28;21.13;;;2.50;56.30;;;;;;5002295;28;20041;-54
2021/12/23 02:07:31;;;;;;;43.20;22.02;;;2.50;56.40;;;;;;5001278;28;20026;-55
2021/12/23 02:09:57;;;;;;;41.15;22.17;;;2.50;56.40;;;;;;5003591;28;20487;-56
2021/12/23 02:12:24;;;;;;;43.17;21.92;;;2.50;56.40;;;;;;5001526;28;20418;-55
2021/12/23 02:14:51;;;;;;;40.10;20.98;;;2.40;56.30;;;;;;5002645;28;20030;-55
2021/12/23 02:17:17;;;;;;;42.22;22.17;;;2.50;56.40;;;;;;4996028;28;20041;-56
2021/12/23 02:19:43;;;;;;;41.17;21.60;;;2.40;56.30;;;;;;5002027;28;20058;-51
2021/12/23 02:22:09;;;;;;;45.40;22.70;;;2.40;56.40;;;;;;5002439;28;20041;-56
2021/12/23 02:24:37;;;;;;;41.75;21.05;;;2.40;56.40;;;;;;5002571;28;20475;-56
2021/12/23 02:27:03;;;;;;;37.78;21.17;;;2.40;56.40;;;;;;5002233;28;20041;-55
2021/12/23 02:29:29;;;;;;;42.10;21.23;;;2.40;56.90;;;;;;5000885;28;20030;-56
2021/12/23 02:31:56;;;;;;;37.90;20.27;;;2.40;56.50;;;;;;5000979;28;20034;-54
2021/12/23 02:34:22;;;;;;;46.65;23.17;;;2.40;56.50;;;;;;5002499;28;20052;-55
2021/12/23 02:36:54;;;;;;;43.58;21.95;;;2.40;56.60;;;;;;5002705;28;20033;-57
2021/12/23 02:39:21;;;;;;;41.28;21.80;;;2.40;56.60;;;;;;5000598;28;20045;-57
2021/12/23 02:41:48;;;;;;;41.85;21.90;;;2.40;56.60;;;;;;4998021;28;20041;-54
2021/12/23 02:44:16;;;;;;;40.85;21.58;;;2.30;56.50;;;;;;5002639;28;20022;-56
2021/12/23 02:46:42;;;;;;;39.33;21.55;;;2.40;56.60;;;;;;5000303;28;20056;-57
2021/12/23 02:49:09;;;;;;;41.97;21.30;;;2.30;56.60;;;;;;4999104;28;20492;-56
2021/12/23 02:51:36;;;;;;;43.13;22.50;;;2.40;56.70;;;;;;5002357;28;20038;-53
2021/12/23 02:54:03;;;;;;;41.00;22.05;;;2.40;56.70;;;;;;5001157;28;20473;-56
2021/12/23 02:56:30;;;;;;;43.20;22.77;;;2.40;56.80;;;;;;5000465;28;20030;-57
2021/12/23 02:58:57;;;;;;;46.75;22.75;;;2.30;56.80;;;;;;4999365;28;20044;-56
2021/12/23 03:01:24;;;;;;;40.15;22.15;;;2.40;56.80;;;;;;4998229;28;20037;-56
2021/12/23 03:03:51;;;;;;;45.97;22.48;;;2.40;56.90;;;;;;5002113;28;20030;-56
2021/12/23 03:06:19;;;;;;;45.75;23.02;;;2.40;56.90;;;;;;5000573;28;20034;-56
2021/12/23 03:08:49;;;;;;;43.85;22.67;;;2.40;56.90;;;;;;5000018;28;20050;-56
2021/12/23 03:11:18;;;;;;;42.00;21.83;;;2.40;57.30;;;;;;5001491;28;20045;-54
2021/12/23 03:13:45;;;;;;;41.58;22.33;;;2.40;56.90;;;;;;5000867;28;20458;-57
2021/12/23 03:16:13;;;;;;;45.38;22.95;;;2.50;56.90;;;;;;5000853;28;20463;-56
2021/12/23 03:18:39;;;;;;;41.25;22.75;;;2.50;56.90;;;;;;4999288;28;20543;-57
2021/12/23 03:21:06;;;;;;;40.03;22.52;;;2.50;56.90;;;;;;5000206;28;20042;-51
2021/12/23 03:23:33;;;;;;;41.03;22.38;;;2.50;56.90;;;;;;5002522;28;20038;-55
2021/12/23 03:26:00;;;;;;;45.33;23.30;;;2.50;57.00;;;;;;5001958;28;20198;-56
2021/12/23 03:28:26;;;;;;;42.85;22.38;;;2.50;57.00;;;;;;4999167;28;20732;-56
2021/12/23 03:30:53;;;;;;;43.53;22.90;;;2.60;57.50;;;;;;5001074;28;20042;-58
2021/12/23 03:33:19;;;;;;;46.58;22.67;;;2.60;57.00;;;;;;5000591;28;20045;-56
2021/12/23 03:35:47;;;;;;;42.83;23.23;;;2.60;57.00;;;;;;5002235;28;20022;-56
2021/12/23 03:38:13;;;;;;;44.40;23.13;;;2.60;57.00;;;;;;4998936;28;20501;-56
2021/12/23 03:40:40;;;;;;;44.10;23.70;;;2.60;57.00;;;;;;5000659;28;20032;-56
2021/12/23 03:43:06;;;;;;;43.33;22.67;;;2.60;57.00;;;;;;4997539;28;20026;-56
2021/12/23 03:45:32;;;;;;;44.03;22.83;;;2.70;57.00;;;;;;5000714;28;20381;-57
2021/12/23 03:47:58;;;;;;;44.33;22.35;;;2.70;57.00;;;;;;4994295;28;20022;-54
2021/12/23 03:50:25;;;;;;;44.13;23.65;;;2.70;57.00;;;;;;5001097;28;20042;-56
2021/12/23 03:52:53;;;;;;;44.70;23.98;;;2.70;57.00;;;;;;5000402;28;20026;-58
2021/12/23 03:55:20;;;;;;;46.33;24.42;;;2.70;57.00;;;;;;4998882;28;20041;-56
2021/12/23 03:57:46;;;;;;;43.35;23.80;;;2.70;57.00;;;;;;4998316;28;20026;-58
2021/12/23 04:00:17;;;;;;;41.95;22.50;;;2.70;57.00;;;;;;4999372;28;20382;-58
2021/12/23 04:02:43;;;;;;;41.65;22.30;;;2.70;57.00;;;;;;4997023;28;20022;-58
2021/12/23 04:05:10;;;;;;;44.03;23.17;;;2.80;57.00;;;;;;5001002;28;20030;-58
2021/12/23 04:07:38;;;;;;;48.03;23.45;;;2.80;57.00;;;;;;4996983;28;20038;-55
2021/12/23 04:10:10;;;;;;;41.13;22.88;;;2.80;57.00;;;;;;5000695;28;20053;-58
2021/12/23 04:12:36;;;;;;;47.22;24.02;;;2.80;57.00;;;;;;4999485;28;20033;-58
2021/12/23 04:15:03;;;;;;;43.83;23.38;;;2.80;57.00;;;;;;5000338;28;20030;-57
2021/12/23 04:17:30;;;;;;;46.20;23.98;;;2.80;57.00;;;;;;4995702;28;20026;-58
2021/12/23 04:20:14;;;;;;;46.40;24.75;;;2.80;56.90;;;;;;4998875;28;20042;-55
2021/12/23 04:22:41;;;;;;;42.88;23.48;;;2.80;56.90;;;;;;5011942;28;20045;-57
2021/12/23 04:25:09;;;;;;;42.63;22.35;;;2.80;56.90;;;;;;4999649;28;20506;-55
2021/12/23 04:27:35;;;;;;;45.33;23.83;;;2.80;56.90;;;;;;4992190;28;20037;-57
2021/12/23 04:30:02;;;;;;;42.53;23.17;;;2.90;57.00;;;;;;4997708;28;20041;-56
2021/12/23 04:32:29;;;;;;;40.58;22.70;;;2.80;57.00;;;;;;4994170;28;20029;-58
2021/12/23 04:34:55;;;;;;;45.33;23.95;;;2.90;57.10;;;;;;4999737;28;20320;-56
2021/12/23 04:37:21;;;;;;;44.10;23.98;;;2.90;57.10;;;;;;4997585;28;20033;-54
2021/12/23 04:39:47;;;;;;;40.55;22.88;;;2.90;57.10;;;;;;4999305;28;20033;-56
2021/12/23 04:42:13;;;;;;;90.97;40.58;;;2.90;57.10;;;;;;4994300;28;20033;-55
2021/12/23 04:44:39;;;;;;;125.30;54.45;;;2.90;57.10;;;;;;4997868;28;20501;-57
2021/12/23 04:47:06;;;;;;;59.15;30.02;;;2.90;57.10;;;;;;4992794;28;20030;-57
2021/12/23 04:49:32;;;;;;;48.90;25.00;;;2.90;57.10;;;;;;4999900;28;20053;-56
2021/12/23 04:51:58;;;;;;;45.28;23.90;;;2.90;57.10;;;;;;4999017;28;20022;-55
2021/12/23 04:54:24;;;;;;;44.28;24.20;;;2.90;57.10;;;;;;4999165;28;20037;-57
2021/12/23 04:56:50;;;;;;;44.63;23.98;;;2.90;57.10;;;;;;4998538;28;20053;-56
2021/12/23 04:59:17;;;;;;;44.42;23.30;;;2.90;57.10;;;;;;4994837;28;20389;-57
2021/12/23 05:01:43;;;;;;;44.70;24.33;;;2.90;57.10;;;;;;4996041;28;20038;-55
2021/12/23 05:04:10;;;;;;;46.80;24.02;;;2.90;57.10;;;;;;5000857;28;20085;-58
2021/12/23 05:06:37;;;;;;;44.80;23.38;;;2.90;57.20;;;;;;4998943;28;20026;-56
2021/12/23 05:09:03;;;;;;;44.28;24.02;;;2.90;57.20;;;;;;4996798;28;20525;-56
2021/12/23 05:11:29;;;;;;;45.80;24.10;;;3.00;57.30;;;;;;4999263;28;20037;-58
2021/12/23 05:13:55;;;;;;;44.47;24.25;;;3.00;57.80;;;;;;4998401;28;20029;-58
2021/12/23 05:16:22;;;;;;;46.78;24.33;;;3.00;57.30;;;;;;4991175;28;20030;-55
2021/12/23 05:18:48;;;;;;;44.38;25.35;;;2.90;57.40;;;;;;4995287;28;20036;-57
2021/12/23 05:21:14;;;;;;;45.65;23.33;;;3.00;57.40;;;;;;4997951;28;20057;-56
2021/12/23 05:23:41;;;;;;;47.47;23.90;;;3.00;57.40;;;;;;5000380;28;20033;-56
2021/12/23 05:26:08;;;;;;;44.72;23.50;;;3.00;57.40;;;;;;4998857;28;20030;-57
2021/12/23 05:28:35;;;;;;;43.45;23.90;;;3.00;57.30;;;;;;4995761;28;20049;-55
2021/12/23 05:31:02;;;;;;;88.40;38.58;;;3.00;57.30;;;;;;4996135;28;20038;-58
2021/12/23 05:33:28;;;;;;;52.50;27.15;;;3.00;57.30;;;;;;4995937;28;20033;-57
2021/12/23 05:35:55;;;;;;;46.47;25.35;;;3.00;57.30;;;;;;5013847;28;20057;-57
2021/12/23 05:38:23;;;;;;;51.95;25.77;;;3.00;57.30;;;;;;4996573;28;20402;-58
2021/12/23 05:40:49;;;;;;;42.53;22.83;;;3.00;57.30;;;;;;4999776;28;20538;-56
2021/12/23 05:43:15;;;;;;;43.42;23.77;;;3.00;57.40;;;;;;5001785;28;20466;-56
2021/12/23 05:45:42;;;;;;;45.92;25.02;;;3.00;57.40;;;;;;4999932;28;20033;-58
2021/12/23 05:48:08;;;;;;;42.47;23.92;;;3.00;57.40;;;;;;4999599;28;20037;-57
2021/12/23 05:50:34;;;;;;;45.13;25.10;;;3.00;57.40;;;;;;5002219;28;20809;-55
2021/12/23 05:53:01;;;;;;;45.75;24.23;;;2.90;57.40;;;;;;5002626;28;20026;-58
2021/12/23 05:55:27;;;;;;;47.03;24.38;;;2.90;57.40;;;;;;5003851;28;20030;-54
2021/12/23 05:57:53;;;;;;;47.45;24.52;;;2.90;57.40;;;;;;5000163;28;20025;-55
2021/12/23 06:00:27;;;;;;;49.88;25.75;;;2.90;57.40;;;;;;5000321;28;20049;-55
2021/12/23 06:02:54;;;;;;;43.40;24.15;;;2.90;57.40;;;;;;5001878;28;20478;-55
2021/12/23 06:05:21;;;;;;;45.33;24.23;;;2.90;57.40;;;;;;5004098;28;20030;-56
2021/12/23 06:07:47;;;;;;;54.80;25.25;;;2.90;57.40;;;;;;4996937;28;20046;-55
2021/12/23 06:10:14;;;;;;;208.77;73.80;;;2.90;57.50;;;;;;5002691;28;20045;-58
2021/12/23 06:12:41;;;;;;;68.82;32.90;;;2.90;57.50;;;;;;5000958;28;20057;-55
2021/12/23 06:15:08;;;;;;;52.92;25.27;;;2.90;57.50;;;;;;5001992;28;20026;-57
2021/12/23 06:17:34;;;;;;;50.72;26.00;;;2.90;57.50;;;;;;5000078;28;20046;-57
2021/12/23 06:20:01;;;;;;;52.35;26.10;;;2.90;57.60;;;;;;5002927;28;20053;-56
2021/12/23 06:22:27;;;;;;;48.08;25.83;;;2.90;57.60;;;;;;5001560;28;20029;-56
2021/12/23 06:24:54;;;;;;;46.50;24.60;;;2.90;57.60;;;;;;5003326;28;20026;-55
2021/12/23 06:27:21;;;;;;;45.95;24.38;;;2.90;57.60;;;;;;4999607;28;20030;-56
2021/12/23 06:29:47;;;;;;;43.83;24.52;;;2.90;57.60;;;;;;5002081;28;20037;-55
2021/12/23 06:32:13;;;;;;;45.55;23.73;;;2.90;57.70;;;;;;4997332;28;20393;-57
2021/12/23 06:34:40;;;;;;;45.88;24.20;;;2.90;57.70;;;;;;5000615;28;20079;-56
2021/12/23 06:37:06;;;;;;;45.40;24.70;;;2.90;57.70;;;;;;4996487;28;20029;-56
2021/12/23 06:39:33;;;;;;;49.30;24.88;;;2.90;57.70;;;;;;5003023;28;20034;-57
2021/12/23 06:42:00;;;;;;;47.92;24.50;;;2.90;57.70;;;;;;4994289;28;20029;-55
2021/12/23 06:44:27;;;;;;;45.25;24.05;;;2.90;57.70;;;;;;4999423;28;20030;-55
2021/12/23 06:46:53;;;;;;;45.40;23.80;;;3.00;57.80;;;;;;4995953;28;20045;-56
2021/12/23 06:49:20;;;;;;;44.60;24.02;;;3.00;57.70;;;;;;5001263;28;20025;-57
2021/12/23 06:51:46;;;;;;;46.28;23.80;;;3.00;57.70;;;;;;4997939;28;20041;-55
2021/12/23 06:54:17;;;;;;;46.33;23.20;;;3.00;57.70;;;;;;5001437;28;20037;-58
2021/12/23 06:56:43;;;;;;;43.97;23.42;;;3.00;57.70;;;;;;4990104;28;20195;-57
2021/12/23 06:59:13;;;;;;;42.40;23.50;;;3.00;57.60;;;;;;4996967;28;20030;-57
2021/12/23 07:01:40;;;;;;;46.63;23.98;;;3.10;57.60;;;;;;4995916;28;20044;-54
2021/12/23 07:04:12;;;;;;;45.28;24.55;;;3.10;57.60;;;;;;5001174;28;20433;-55
2021/12/23 07:06:46;;;;;;;48.47;23.67;;;3.10;57.60;;;;;;4998486;28;20033;-56
2021/12/23 07:09:13;;;;;;;47.40;23.80;;;3.10;57.60;;;;;;4997171;28;20397;-55
2021/12/23 07:11:40;;;;;;;43.53;23.17;;;3.10;57.60;;;;;;4998755;28;20042;-55
2021/12/23 07:14:06;;;;;;;49.78;23.98;;;3.10;57.60;;;;;;4996121;28;20033;-57
2021/12/23 07:16:33;;;;;;;42.03;22.45;;;3.20;57.60;;;;;;5009864;28;20038;-56
2021/12/23 07:18:59;;;;;;;42.92;23.65;;;3.20;58.10;;;;;;4999961;28;20053;-58
2021/12/23 07:21:26;;;;;;;47.72;24.10;;;3.20;57.60;;;;;;5000649;28;20061;-55
2021/12/23 07:23:52;;;;;;;46.72;25.10;;;3.20;57.60;;;;;;5000472;28;20029;-55
2021/12/23 07:26:18;;;;;;;48.70;24.77;;;3.20;57.50;;;;;;4997767;28;20030;-58
2021/12/23 07:28:44;;;;;;;47.85;23.15;;;3.20;57.50;;;;;;4999511;28;20042;-55
2021/12/23 07:31:10;;;;;;;44.42;23.52;;;3.20;57.50;;;;;;4995594;28;20713;-55
2021/12/23 07:33:37;;;;;;;45.83;24.23;;;3.30;58.10;;;;;;5000295;28;20037;-58
2021/12/23 07:36:05;;;;;;;45.05;24.35;;;3.30;57.60;;;;;;4999095;28;20030;-57
2021/12/23 07:38:33;;;;;;;47.03;24.25;;;3.30;57.50;;;;;;4999867;28;20037;-55
2021/12/23 07:40:59;;;;;;;47.38;24.23;;;3.30;57.50;;;;;;4998139;28;20029;-56
2021/12/23 07:43:43;;;;;;;44.33;23.92;;;3.30;57.50;;;;;;4995991;28;20463;-58
2021/12/23 07:46:09;;;;;;;43.75;23.23;;;3.40;57.50;;;;;;4994935;28;20038;-55
2021/12/23 07:48:36;;;;;;;45.53;24.00;;;3.40;57.50;;;;;;4997551;28;20022;-56
2021/12/23 07:51:04;;;;;;;44.25;23.33;;;3.40;57.40;;;;;;4994568;28;20034;-55
2021/12/23 07:53:30;;;;;;;46.25;24.80;;;3.40;57.30;;;;;;5000018;28;20029;-58
2021/12/23 07:55:56;;;;;;;44.70;23.95;;;3.50;57.30;;;;;;4994364;28;20065;-57
2021/12/23 07:58:22;;;;;;;84.53;37.33;;;3.50;57.30;;;;;;4994803;28;20026;-57
2021/12/23 08:00:48;;;;;;;73.78;32.58;;;3.50;57.30;;;;;;4994756;28;20026;-57
2021/12/23 08:03:15;;;;;;;51.08;26.40;;;3.50;57.20;;;;;;4999606;28;20025;-56
2021/12/23 08:05:44;;;;;;;47.08;23.95;;;3.50;57.20;;;;;;4998487;28;20482;-58
2021/12/23 08:08:10;;;;;;;45.10;23.45;;;3.50;57.20;;;;;;5000713;28;20573;-55
2021/12/23 08:10:36;;;;;;;48.15;23.55;;;3.60;57.20;;;;;;4997490;28;20038;-55
2021/12/23 08:13:02;;;;;;;44.30;23.90;;;3.60;57.20;;;;;;4998518;28;20474;-56
2021/12/23 08:15:29;;;;;;;44.00;24.25;;;3.60;57.20;;;;;;4997237;28;20497;-55
2021/12/23 08:17:55;;;;;;;42.67;23.55;;;3.60;57.20;;;;;;4996673;28;20029;-53
2021/12/23 08:20:21;;;;;;;45.53;23.52;;;3.70;57.20;;;;;;5000252;28;20042;-54
2021/12/23 08:22:49;;;;;;;45.83;24.23;;;3.70;57.20;;;;;;4999187;28;20046;-55
2021/12/23 08:25:15;;;;;;;47.60;23.75;;;3.70;57.20;;;;;;5000202;28;20030;-56
2021/12/23 08:27:42;;;;;;;47.78;25.20;;;3.70;57.10;;;;;;4999360;28;20565;-55
2021/12/23 08:30:10;;;;;;;47.40;23.90;;;3.70;57.00;;;;;;4998494;28;20477;-53
2021/12/23 08:32:37;;;;;;;45.83;24.38;;;3.80;57.10;;;;;;4996844;28;20490;-56
2021/12/23 08:35:04;;;;;;;48.38;24.95;;;3.80;57.00;;;;;;5000206;28;20397;-56
2021/12/23 08:37:30;;;;;;;40.58;22.33;;;3.80;57.00;;;;;;4999038;28;20040;-57
2021/12/23 08:39:57;;;;;;;43.47;22.63;;;3.90;56.90;;;;;;4996838;28;20376;-55
2021/12/23 08:42:23;;;;;;;44.35;23.63;;;3.90;56.80;;;;;;4996213;28;20022;-56
2021/12/23 08:44:49;;;;;;;46.13;24.52;;;3.90;56.70;;;;;;5000456;28;20037;-56
2021/12/23 08:47:16;;;;;;;45.28;24.48;;;3.90;56.70;;;;;;4997480;28;20569;-56
2021/12/23 08:49:44;;;;;;;43.45;22.77;;;3.90;56.70;;;;;;4997867;28;20444;-55
2021/12/23 08:52:12;;;;;;;48.95;25.38;;;4.00;56.70;;;;;;4999967;28;20265;-57
2021/12/23 08:54:38;;;;;;;47.25;24.70;;;4.00;56.60;;;;;;5000883;28;20478;-55
2021/12/23 08:57:05;;;;;;;46.92;25.33;;;4.00;56.60;;;;;;4995877;28;20390;-56
2021/12/23 08:59:31;;;;;;;48.03;24.10;;;4.00;56.60;;;;;;5000473;28;20041;-55
2021/12/23 09:01:58;;;;;;;49.75;25.30;;;4.10;56.60;;;;;;4997127;28;20482;-55
2021/12/23 09:04:24;;;;;;;47.05;25.17;;;4.10;56.60;;;;;;5000202;28;20038;-55
2021/12/23 09:06:50;;;;;;;45.33;24.90;;;4.10;56.50;;;;;;5000495;28;20022;-57
2021/12/23 09:09:17;;;;;;;42.60;23.00;;;4.10;56.50;;;;;;4999310;28;20391;-55
2021/12/23 09:11:44;;;;;;;46.67;23.67;;;4.10;56.50;;;;;;4997064;28;20045;-54
2021/12/23 09:14:11;;;;;;;46.35;24.15;;;4.10;56.50;;;;;;4998179;28;20030;-56
2021/12/23 09:16:38;;;;;;;45.38;23.33;;;4.20;56.50;;;;;;5000011;28;20041;-55
2021/12/23 09:19:05;;;;;;;51.38;25.10;;;4.20;56.50;;;;;;5000524;28;20029;-56
2021/12/23 09:21:31;;;;;;;47.30;25.55;;;4.30;56.50;;;;;;5003723;28;20038;-53
2021/12/23 09:23:58;;;;;;;43.33;24.67;;;4.30;56.50;;;;;;5004231;28;20037;-57
2021/12/23 09:26:24;;;;;;;47.33;24.90;;;4.30;56.40;;;;;;5003541;28;20394;-55
2021/12/23 09:34:02;;;;;;;45.78;25.17;;;4.40;56.30;;;;;;5010966;28;20063;-55
2021/12/23 09:36:28;;;;;;;56.55;30.10;;;4.40;56.20;;;;;;5002466;28;20042;-55
2021/12/23 09:38:55;;;;;;;63.95;32.30;;;4.50;56.20;;;;;;5000388;28;20025;-55
2021/12/23 09:41:22;;;;;;;50.33;26.92;;;4.50;56.20;;;;;;5002380;28;20056;-56
2021/12/23 09:43:50;;;;;;;48.35;25.58;;;4.50;56.10;;;;;;5004262;28;20053;-55
2021/12/23 09:46:21;;;;;;;59.22;26.98;;;4.50;56.10;;;;;;4999318;28;20390;-53
2021/12/23 09:48:47;;;;;;;49.70;25.48;;;4.50;56.10;;;;;;4990756;28;20039;-57
2021/12/23 09:51:17;;;;;;;49.53;25.58;;;4.60;56.20;;;;;;4999656;28;20038;-56
2021/12/23 09:53:46;;;;;;;51.78;25.92;;;4.60;56.10;;;;;;4998993;28;20030;-57
2021/12/23 09:56:12;;;;;;;52.97;28.90;;;4.60;56.10;;;;;;4997463;28;20022;-56
2021/12/23 09:58:39;;;;;;;47.28;25.20;;;4.70;56.10;;;;;;4998080;28;20398;-54
2021/12/23 10:01:07;;;;;;;48.92;24.05;;;4.70;56.10;;;;;;4997915;28;20034;-56
2021/12/23 10:03:34;;;;;;;52.75;26.60;;;4.70;56.00;;;;;;4992314;28;20033;-55
2021/12/23 10:06:00;;;;;;;48.25;25.27;;;4.70;56.00;;;;;;5000975;28;20505;-56
2021/12/23 10:08:28;;;;;;;47.60;24.63;;;4.80;56.00;;;;;;5001057;28;20025;-58
2021/12/23 10:30:33;;;;;;;49.28;26.08;;;5.10;55.90;;;;;;4987661;28;20041;-57
2021/12/23 10:38:25;;;;;;;45.60;24.83;;;5.20;55.70;;;;;;5008075;28;20057;-55
2021/12/23 10:40:56;;;;;;;51.72;25.70;;;5.30;55.70;;;;;;5002548;28;20045;-55
2021/12/23 10:43:38;;;;;;;46.65;24.77;;;5.30;55.60;;;;;;5002266;28;20382;-57
2021/12/23 10:46:15;;;;;;;48.60;24.60;;;5.40;55.50;;;;;;5002426;28;20034;-56
2021/12/23 10:48:46;;;;;;;43.90;23.48;;;5.40;55.50;;;;;;4997199;28;20038;-58
2021/12/23 10:51:17;;;;;;;49.28;23.73;;;5.50;55.40;;;;;;4998694;28;20400;-54
2021/12/23 10:54:09;;;;;;;50.03;25.52;;;5.50;55.30;;;;;;4996828;28;20044;-55
2021/12/23 10:59:27;;;;;;;45.30;23.58;;;5.60;55.20;;;;;;5009603;28;20100;-58
2021/12/23 11:02:19;;;;;;;51.05;24.80;;;5.60;55.20;;;;;;5001553;28;20486;-53
2021/12/23 11:05:19;;;;;;;;;;;;;;;;;;;;;
2021/12/23 11:07:55;;;;;;;44.30;23.83;;;5.70;55.10;;;;;;5001623;28;20034;-56
2021/12/23 11:38:37;;;;;;;45.65;23.80;;;6.10;54.70;;;;;;5004981;28;20033;-56
2021/12/23 11:41:18;;;;;;;48.75;25.63;;;6.10;54.60;;;;;;5001301;28;20355;-55
2021/12/23 11:46:31;;;;;;;51.78;26.05;;;6.10;54.60;;;;;;4999827;28;20029;-54
2021/12/23 11:49:01;;;;;;;50.85;25.52;;;6.10;54.50;;;;;;5000640;28;20045;-55
2021/12/23 11:51:45;;;;;;;49.30;25.70;;;6.10;54.60;;;;;;5001103;28;20034;-54
2021/12/23 11:54:15;;;;;;;48.22;24.80;;;6.10;54.60;;;;;;5000936;28;20033;-56
2021/12/23 11:56:55;;;;;;;57.90;25.70;;;6.10;54.70;;;;;;5000982;28;20034;-57
2021/12/23 11:59:22;;;;;;;49.38;25.75;;;6.20;54.70;;;;;;5001749;28;20069;-55
2021/12/23 12:01:54;;;;;;;46.17;24.33;;;6.20;54.70;;;;;;4999748;28;20052;-56
2021/12/23 12:04:30;;;;;;;53.95;26.20;;;6.20;54.60;;;;;;5000326;28;20048;-57
2021/12/23 12:06:57;;;;;;;49.65;25.15;;;6.20;54.60;;;;;;5000832;28;20398;-56
2021/12/23 12:09:30;;;;;;;45.92;23.52;;;6.30;54.70;;;;;;5000709;28;20037;-54
2021/12/23 12:11:59;;;;;;;43.97;24.23;;;6.30;54.60;;;;;;4987033;28;20374;-55
2021/12/23 12:14:41;;;;;;;48.88;25.05;;;6.30;54.60;;;;;;4988783;28;20029;-56
2021/12/23 12:17:25;;;;;;;48.20;24.77;;;6.30;54.40;;;;;;4999121;28;20038;-57
2021/12/23 12:20:03;;;;;;;46.80;23.45;;;6.30;54.30;;;;;;4997725;28;20125;-55
2021/12/23 12:23:02;;;;;;;51.42;26.05;;;6.40;54.40;;;;;;5000776;28;20596;-54
2021/12/23 12:25:28;;;;;;;51.80;26.15;;;6.30;54.30;;;;;;4993535;28;20037;-56
2021/12/23 12:27:57;;;;;;;51.85;26.33;;;6.30;54.40;;;;;;4998405;28;20033;-55
2021/12/23 12:30:37;;;;;;;50.55;25.17;;;6.40;54.30;;;;;;4998721;28;20033;-54
2021/12/23 12:33:23;;;;;;;49.38;25.30;;;6.40;54.30;;;;;;4982719;28;20033;-55
2021/12/23 12:35:50;;;;;;;48.70;24.75;;;6.40;54.30;;;;;;4992060;28;20029;-56
2021/12/23 12:38:22;;;;;;;58.08;27.00;;;6.30;54.30;;;;;;4997872;28;20030;-55
2021/12/23 12:41:00;;;;;;;49.08;26.17;;;6.30;54.40;;;;;;4995228;28;20378;-55
2021/12/23 12:43:47;;;;;;;51.70;25.90;;;6.30;54.40;;;;;;4997857;28;20023;-57
2021/12/23 12:46:33;;;;;;;47.63;25.05;;;6.40;54.50;;;;;;4997212;28;20030;-55
2021/12/23 12:49:08;;;;;;;47.92;24.67;;;6.30;54.50;;;;;;4998089;28;20033;-57
2021/12/23 12:51:38;;;;;;;51.72;25.67;;;6.40;54.60;;;;;;5003382;28;20030;-54
2021/12/23 12:54:13;;;;;;;53.95;26.27;;;6.40;54.70;;;;;;5004728;28;20588;-55
2021/12/23 12:56:48;;;;;;;48.17;25.48;;;6.40;54.70;;;;;;5002746;28;20046;-56
2021/12/23 12:59:16;;;;;;;46.22;24.23;;;6.40;54.70;;;;;;4997977;28;20030;-56
2021/12/23 13:01:45;;;;;;;48.50;25.88;;;6.40;54.70;;;;;;4999135;28;20474;-57
2021/12/23 13:04:43;;;;;;;47.10;23.80;;;6.40;54.70;;;;;;5002694;28;20021;-53
2021/12/23 13:07:23;;;;;;;48.33;25.48;;;6.40;54.70;;;;;;5000944;28;20038;-57
2021/12/23 13:09:56;;;;;;;50.13;25.45;;;6.40;54.70;;;;;;5004727;28;20034;-55
2021/12/23 13:12:51;;;;;;;50.75;25.70;;;6.50;54.80;;;;;;4997871;28;20394;-53
2021/12/23 13:15:19;;;;;;;51.42;24.65;;;6.50;54.80;;;;;;4993132;28;20038;-52
2021/12/23 13:17:54;;;;;;;53.03;26.75;;;6.50;54.80;;;;;;4992066;28;20618;-55
2021/12/23 13:20:44;;;;;;;56.85;26.50;;;6.50;54.80;;;;;;4989729;28;20044;-53
2021/12/23 13:23:18;;;;;;;50.03;25.35;;;6.50;54.80;;;;;;4998879;28;20355;-58
2021/12/23 13:26:18;;;;;;;53.75;25.77;;;6.60;54.90;;;;;;5003074;28;20030;-55
2021/12/23 13:28:48;;;;;;;51.60;24.52;;;6.60;55.00;;;;;;4981656;28;20470;-55
2021/12/23 13:31:27;;;;;;;46.17;24.15;;;6.60;55.00;;;;;;5001697;28;20387;-54
2021/12/23 13:34:01;;;;;;;48.47;23.98;;;6.60;55.00;;;;;;5003591;28;20040;-55
2021/12/23 13:36:40;;;;;;;51.72;25.17;;;6.60;55.00;;;;;;4992353;28;20489;-53
2021/12/23 13:39:09;;;;;;;46.53;24.23;;;6.70;55.00;;;;;;4995322;28;20506;-55
2021/12/23 13:41:44;;;;;;;51.63;25.13;;;6.60;55.00;;;;;;4989718;28;20034;-57
2021/12/23 13:44:30;;;;;;;46.85;24.42;;;6.70;55.00;;;;;;5002350;28;20328;-54
2021/12/23 13:47:00;;;;;;;46.53;25.05;;;6.70;55.00;;;;;;4995025;28;20033;-57
2021/12/23 13:49:39;;;;;;;50.25;24.88;;;6.70;55.10;;;;;;4991684;28;20033;-53
2021/12/23 13:52:09;;;;;;;45.22;23.40;;;6.70;55.10;;;;;;4998058;28;20034;-57
2021/12/23 13:54:38;;;;;;;46.90;24.17;;;6.70;55.10;;;;;;4998590;28;20029;-57
2021/12/23 13:57:17;;;;;;;45.05;23.27;;;6.80;55.20;;;;;;4983542;28;20026;-56
2021/12/23 13:59:45;;;;;;;42.00;22.88;;;6.80;55.20;;;;;;4985506;28;20033;-57